createdAt,value
2018-05-06T00:00:33.690Z,18.50
2018-05-06T00:06:35.198Z,18.50
2018-05-06T00:12:36.772Z,18.40
2018-05-06T00:18:39.105Z,18.40
2018-05-06T00:24:41.355Z,18.40
2018-05-06T00:30:42.880Z,18.30
2018-05-06T00:36:44.423Z,18.40
2018-05-06T00:42:46.679Z,18.30
2018-05-06T00:48:48.192Z,18.30
2018-05-06T00:54:49.694Z,18.30
2018-05-06T01:00:51.232Z,18.30
2018-05-06T01:06:52.763Z,18.30
2018-05-06T01:12:54.319Z,18.30
2018-05-06T01:18:55.864Z,18.30
2018-05-06T01:24:57.415Z,18.30
2018-05-06T01:30:58.992Z,18.20
2018-05-06T01:37:01.274Z,18.20
2018-05-06T01:43:02.777Z,18.20
2018-05-06T01:49:04.283Z,18.20
2018-05-06T01:55:05.815Z,18.20
2018-05-06T02:01:07.353Z,18.10
2018-05-06T02:07:08.891Z,18.10
2018-05-06T02:13:10.393Z,18.10
2018-05-06T02:19:11.927Z,18.10
2018-05-06T02:25:13.431Z,18.10
2018-05-06T02:31:14.944Z,18.10
2018-05-06T02:37:17.204Z,18.10
2018-05-06T02:43:18.738Z,18.10
2018-05-06T02:49:20.249Z,18.10
2018-05-06T02:55:21.779Z,18.10
2018-05-06T03:01:23.316Z,18.10
2018-05-06T03:07:24.860Z,18.10
2018-05-06T03:13:26.470Z,18.10
2018-05-06T03:19:28.019Z,18.00
2018-05-06T03:25:30.287Z,18.00
2018-05-06T03:31:31.797Z,18.00
2018-05-06T03:37:33.348Z,18.00
2018-05-06T03:43:35.641Z,17.90
2018-05-06T03:49:37.255Z,17.90
2018-05-06T03:55:38.778Z,17.90
2018-05-06T04:01:41.127Z,17.90
2018-05-06T04:07:43.926Z,17.80
2018-05-06T04:13:45.427Z,17.90
2018-05-06T04:19:46.938Z,18.00
2018-05-06T04:25:48.452Z,18.00
2018-05-06T04:31:49.963Z,18.00
2018-05-06T04:37:51.477Z,18.10
2018-05-06T04:43:53.010Z,18.10
2018-05-06T04:49:54.520Z,18.20
2018-05-06T04:55:56.045Z,18.20
2018-05-06T05:01:58.321Z,18.20
2018-05-06T05:07:59.825Z,18.30
2018-05-06T05:14:01.336Z,18.30
2018-05-06T05:20:02.853Z,18.30
2018-05-06T05:26:04.366Z,18.30
2018-05-06T05:32:06.618Z,18.40
2018-05-06T05:38:08.207Z,18.40
2018-05-06T05:44:10.477Z,18.50
2018-05-06T05:50:12.008Z,18.40
2018-05-06T05:56:13.532Z,18.40
2018-05-06T06:02:15.861Z,18.50
2018-05-06T06:08:18.228Z,18.50
2018-05-06T06:14:19.764Z,18.50
2018-05-06T06:20:21.372Z,18.60
2018-05-06T06:26:22.888Z,18.60
2018-05-06T06:32:24.404Z,18.60
2018-05-06T06:38:26.724Z,18.70
2018-05-06T06:44:28.184Z,18.70
2018-05-06T06:50:29.679Z,18.90
2018-05-06T06:56:31.210Z,19.00
2018-05-06T07:02:32.730Z,18.90
2018-05-06T07:08:34.347Z,18.90
2018-05-06T07:14:36.617Z,18.90
2018-05-06T07:20:38.167Z,18.80
2018-05-06T07:26:39.764Z,18.80
2018-05-06T07:32:41.287Z,18.80
2018-05-06T07:38:43.587Z,18.70
2018-05-06T07:44:45.127Z,18.70
2018-05-06T07:50:47.369Z,18.60
2018-05-06T07:56:48.893Z,18.60
2018-05-06T08:02:50.432Z,18.80
2018-05-06T08:08:51.995Z,18.80
2018-05-06T08:14:53.486Z,18.80
2018-05-06T08:20:55.028Z,18.80
2018-05-06T08:26:56.538Z,18.80
2018-05-06T08:32:58.042Z,18.80
2018-05-06T08:38:59.557Z,18.90
2018-05-06T08:45:01.827Z,18.90
2018-05-06T08:51:03.358Z,18.80
2018-05-06T08:57:04.870Z,18.80
2018-05-06T09:03:06.459Z,18.90
2018-05-06T09:09:08.164Z,18.90
2018-05-06T09:15:09.714Z,18.90
2018-05-06T09:21:11.242Z,18.90
2018-05-06T09:27:20.396Z,18.90
2018-05-06T09:33:22.030Z,18.80
2018-05-06T09:39:24.311Z,18.90
2018-05-06T09:45:25.823Z,18.90
2018-05-06T09:51:27.324Z,19.00
2018-05-06T09:57:28.890Z,19.10
2018-05-06T10:03:30.426Z,19.10
2018-05-06T10:09:32.699Z,19.00
2018-05-06T10:15:34.226Z,19.00
2018-05-06T10:21:35.753Z,19.00
2018-05-06T10:27:38.032Z,19.00
2018-05-06T10:33:39.648Z,19.00
2018-05-06T10:39:41.185Z,19.00
2018-05-06T10:45:43.456Z,19.10
2018-05-06T10:51:45.014Z,19.00
2018-05-06T10:57:46.696Z,19.10
2018-05-06T11:03:48.330Z,19.20
2018-05-06T11:09:50.623Z,19.30
2018-05-06T11:15:52.156Z,19.20
2018-05-06T11:21:54.415Z,19.20
2018-05-06T11:27:55.942Z,19.20
2018-05-06T11:33:57.463Z,19.20
2018-05-06T11:39:59.004Z,19.20
2018-05-06T11:46:01.334Z,19.20
2018-05-06T11:52:03.579Z,19.30
2018-05-06T11:58:05.112Z,19.30
2018-05-06T12:04:06.664Z,19.30
2018-05-06T12:10:09.020Z,19.30
2018-05-06T12:16:10.570Z,19.30
2018-05-06T12:22:12.108Z,19.30
2018-05-06T12:28:13.641Z,19.30
2018-05-06T12:34:15.166Z,19.30
2018-05-06T12:40:16.713Z,19.30
2018-05-06T12:46:18.955Z,19.30
2018-05-06T12:52:20.508Z,19.30
2018-05-06T12:58:22.032Z,19.30
2018-05-06T13:04:24.309Z,19.30
2018-05-06T13:10:25.878Z,19.30
2018-05-06T13:16:27.396Z,19.30
2018-05-06T13:22:28.920Z,19.40
2018-05-06T13:28:30.451Z,19.30
2018-05-06T13:34:32.061Z,19.40
2018-05-06T13:40:35.103Z,19.40
2018-05-06T13:46:36.629Z,19.40
2018-05-06T13:52:39.004Z,19.40
2018-05-06T13:58:40.611Z,19.40
2018-05-06T14:04:42.186Z,19.40
2018-05-06T14:10:43.750Z,19.40
2018-05-06T14:16:45.287Z,19.40
2018-05-06T14:22:47.579Z,19.40
2018-05-06T14:28:49.106Z,19.40
2018-05-06T14:34:51.355Z,19.40
2018-05-06T14:40:52.869Z,19.40
2018-05-06T14:47:13.260Z,19.40
2018-05-06T14:53:14.785Z,19.40
2018-05-06T14:59:17.070Z,19.40
2018-05-06T15:05:18.592Z,19.40
2018-05-06T15:11:20.120Z,19.40
2018-05-06T15:17:22.370Z,19.30
2018-05-06T15:23:23.885Z,19.30
2018-05-06T15:29:25.452Z,19.30
2018-05-06T15:35:27.003Z,19.30
2018-05-06T15:41:28.593Z,19.30
2018-05-06T15:47:30.281Z,19.30
2018-05-06T15:53:32.667Z,19.40
2018-05-06T15:59:34.231Z,19.40
2018-05-06T16:05:36.526Z,19.40
2018-05-06T16:11:38.110Z,19.50
2018-05-06T16:17:39.851Z,19.50
2018-05-06T16:23:42.086Z,19.60
2018-05-06T16:29:43.619Z,19.50
2018-05-06T16:35:45.151Z,19.60
2018-05-06T16:41:47.478Z,19.60
2018-05-06T16:47:49.805Z,19.50
2018-05-06T16:53:52.064Z,19.50
2018-05-06T16:59:53.605Z,19.50
2018-05-06T17:05:55.155Z,19.40
2018-05-06T17:11:56.671Z,19.40
2018-05-06T17:17:58.192Z,19.60
2018-05-06T17:23:59.703Z,19.60
2018-05-06T17:30:01.271Z,19.80
2018-05-06T17:36:02.785Z,19.80
2018-05-06T17:42:04.314Z,19.90
2018-05-06T17:48:05.828Z,20.00
2018-05-06T17:54:07.391Z,20.10
2018-05-06T18:00:09.027Z,20.10
2018-05-06T18:06:10.607Z,20.20
2018-05-06T18:12:12.177Z,20.20
2018-05-06T18:18:13.768Z,20.20
2018-05-06T18:24:15.417Z,20.20
2018-05-06T18:30:17.603Z,20.30
2018-05-06T18:36:19.158Z,20.20
2018-05-06T18:42:20.666Z,20.30
2018-05-06T18:48:22.187Z,20.30
2018-05-06T18:54:23.711Z,20.20
2018-05-06T19:00:25.255Z,20.20
2018-05-06T19:06:27.619Z,20.20
2018-05-06T19:12:29.211Z,20.20
2018-05-06T19:18:30.725Z,20.20
2018-05-06T19:24:32.260Z,20.20
2018-05-06T19:30:33.880Z,20.20
2018-05-06T19:36:35.432Z,20.20
2018-05-06T19:42:37.008Z,20.20
2018-05-06T19:48:39.573Z,20.20
2018-05-06T19:54:41.143Z,20.20
2018-05-06T20:00:42.805Z,20.10
2018-05-06T20:06:44.473Z,20.00
2018-05-06T20:12:46.130Z,20.00
2018-05-06T20:18:47.648Z,19.90
2018-05-06T20:24:49.278Z,19.90
2018-05-06T20:30:51.531Z,19.80
2018-05-06T20:36:53.053Z,19.80
2018-05-06T20:42:54.598Z,19.80
2018-05-06T20:48:56.123Z,19.80
2018-05-06T20:54:57.656Z,19.80
2018-05-06T21:00:59.237Z,19.70
2018-05-06T21:07:00.781Z,19.70
2018-05-06T21:13:02.343Z,19.60
2018-05-06T21:19:04.699Z,19.50
2018-05-06T21:25:06.976Z,19.50
2018-05-06T21:31:09.339Z,19.50
2018-05-06T21:37:11.085Z,19.50
2018-05-06T21:43:12.705Z,19.50
2018-05-06T21:49:14.294Z,19.50
2018-05-06T21:55:15.938Z,19.50
2018-05-06T22:01:20.161Z,19.60
2018-05-06T22:07:21.784Z,19.50
2018-05-06T22:13:23.249Z,19.60
2018-05-06T22:19:24.807Z,19.60
2018-05-06T22:25:26.490Z,19.60
2018-05-06T22:31:28.006Z,19.60
2018-05-06T22:37:29.547Z,19.50
2018-05-06T22:43:31.793Z,19.40
2018-05-06T22:49:33.446Z,19.40
2018-05-06T22:55:34.962Z,19.40
2018-05-06T23:01:37.328Z,19.40
2018-05-06T23:07:39.087Z,19.40
2018-05-06T23:13:40.688Z,19.40
2018-05-06T23:19:42.282Z,19.40
2018-05-06T23:25:43.876Z,19.40
2018-05-06T23:31:45.514Z,19.40
2018-05-06T23:37:47.113Z,19.40
2018-05-06T23:43:48.709Z,19.40
2018-05-06T23:49:50.228Z,19.40
2018-05-06T23:55:51.805Z,19.40
